sensor_id;sensor_type;location;lat;lon;timestamp;P1;durP1;ratioP1;P2;durP2;ratioP2
14080;SDS011;7116;52.152;5.392;2023-08-20T00:03:49;9.33;;;2.90;;
14080;SDS011;7116;52.152;5.392;2023-08-20T00:06:38;7.45;;;2.88;;
14080;SDS011;7116;52.152;5.392;2023-08-20T00:12:30;6.05;;;2.85;;
14080;SDS011;7116;52.152;5.392;2023-08-20T00:14:56;9.70;;;3.07;;
14080;SDS011;7116;52.152;5.392;2023-08-20T00:24:02;6.45;;;3.08;;
14080;SDS011;7116;52.152;5.392;2023-08-20T00:26:50;4.80;;;2.60;;
14080;SDS011;7116;52.152;5.392;2023-08-20T00:32:41;5.75;;;2.83;;
14080;SDS011;7116;52.152;5.392;2023-08-20T00:47:21;7.47;;;2.65;;
14080;SDS011;7116;52.152;5.392;2023-08-20T00:50:15;6.07;;;2.78;;
14080;SDS011;7116;52.152;5.392;2023-08-20T00:53:01;6.95;;;2.63;;
14080;SDS011;7116;52.152;5.392;2023-08-20T00:58:30;7.07;;;3.10;;
14080;SDS011;7116;52.152;5.392;2023-08-20T01:01:19;7.85;;;3.05;;
14080;SDS011;7116;52.152;5.392;2023-08-20T01:13:03;7.10;;;3.37;;
14080;SDS011;7116;52.152;5.392;2023-08-20T01:16:09;7.97;;;3.00;;
14080;SDS011;7116;52.152;5.392;2023-08-20T01:33:20;6.43;;;2.92;;
14080;SDS011;7116;52.152;5.392;2023-08-20T01:36:15;7.13;;;3.28;;
14080;SDS011;7116;52.152;5.392;2023-08-20T01:39:02;6.03;;;2.95;;
14080;SDS011;7116;52.152;5.392;2023-08-20T01:41:40;7.37;;;3.23;;
14080;SDS011;7116;52.152;5.392;2023-08-20T01:53:56;8.02;;;2.45;;
14080;SDS011;7116;52.152;5.392;2023-08-20T01:59:44;5.30;;;3.15;;
14080;SDS011;7116;52.152;5.392;2023-08-20T02:08:24;6.15;;;2.90;;
14080;SDS011;7116;52.152;5.392;2023-08-20T02:14:00;5.95;;;2.72;;
14080;SDS011;7116;52.152;5.392;2023-08-20T02:16:57;5.72;;;2.90;;
14080;SDS011;7116;52.152;5.392;2023-08-20T02:25:27;6.20;;;3.13;;
14080;SDS011;7116;52.152;5.392;2023-08-20T02:43:32;6.20;;;2.65;;
14080;SDS011;7116;52.152;5.392;2023-08-20T02:46:00;6.28;;;3.10;;
14080;SDS011;7116;52.152;5.392;2023-08-20T02:48:38;7.90;;;5.22;;
14080;SDS011;7116;52.152;5.392;2023-08-20T02:51:42;8.98;;;3.60;;
14080;SDS011;7116;52.152;5.392;2023-08-20T02:54:17;8.87;;;3.37;;
14080;SDS011;7116;52.152;5.392;2023-08-20T02:56:45;7.28;;;3.28;;
14080;SDS011;7116;52.152;5.392;2023-08-20T02:59:10;9.15;;;3.78;;
14080;SDS011;7116;52.152;5.392;2023-08-20T03:01:38;5.63;;;3.30;;
14080;SDS011;7116;52.152;5.392;2023-08-20T03:04:03;7.75;;;3.38;;
14080;SDS011;7116;52.152;5.392;2023-08-20T03:06:38;9.45;;;3.85;;
14080;SDS011;7116;52.152;5.392;2023-08-20T03:09:09;7.43;;;3.63;;
14080;SDS011;7116;52.152;5.392;2023-08-20T03:11:37;7.70;;;2.80;;
14080;SDS011;7116;52.152;5.392;2023-08-20T03:14:02;7.10;;;3.27;;
14080;SDS011;7116;52.152;5.392;2023-08-20T03:32:18;4.68;;;3.03;;
14080;SDS011;7116;52.152;5.392;2023-08-20T03:37:51;4.60;;;2.95;;
14080;SDS011;7116;52.152;5.392;2023-08-20T03:46:41;8.48;;;3.28;;
14080;SDS011;7116;52.152;5.392;2023-08-20T03:49:06;6.45;;;3.30;;
14080;SDS011;7116;52.152;5.392;2023-08-20T03:51:38;6.72;;;3.70;;
14080;SDS011;7116;52.152;5.392;2023-08-20T03:54:26;10.20;;;3.63;;
14080;SDS011;7116;52.152;5.392;2023-08-20T04:21:31;6.47;;;3.22;;
14080;SDS011;7116;52.152;5.392;2023-08-20T04:43:04;6.63;;;2.75;;
14080;SDS011;7116;52.152;5.392;2023-08-20T04:49:03;4.93;;;3.03;;
14080;SDS011;7116;52.152;5.392;2023-08-20T04:57:54;6.75;;;2.83;;
14080;SDS011;7116;52.152;5.392;2023-08-20T05:00:40;7.07;;;3.03;;
14080;SDS011;7116;52.152;5.392;2023-08-20T05:03:47;6.10;;;3.03;;
14080;SDS011;7116;52.152;5.392;2023-08-20T05:12:41;6.95;;;2.97;;
14080;SDS011;7116;52.152;5.392;2023-08-20T05:15:07;4.55;;;2.40;;
14080;SDS011;7116;52.152;5.392;2023-08-20T05:17:49;6.27;;;3.40;;
14080;SDS011;7116;52.152;5.392;2023-08-20T05:20:35;7.65;;;2.92;;
14080;SDS011;7116;52.152;5.392;2023-08-20T05:26:33;8.57;;;3.13;;
14080;SDS011;7116;52.152;5.392;2023-08-20T05:29:26;7.93;;;3.00;;
14080;SDS011;7116;52.152;5.392;2023-08-20T05:32:29;7.13;;;3.27;;
14080;SDS011;7116;52.152;5.392;2023-08-20T05:35:32;10.68;;;4.38;;
14080;SDS011;7116;52.152;5.392;2023-08-20T05:41:03;7.57;;;3.42;;
14080;SDS011;7116;52.152;5.392;2023-08-20T05:46:41;11.57;;;3.65;;
14080;SDS011;7116;52.152;5.392;2023-08-20T05:49:29;8.87;;;3.23;;
14080;SDS011;7116;52.152;5.392;2023-08-20T05:52:36;9.93;;;3.60;;
14080;SDS011;7116;52.152;5.392;2023-08-20T05:55:00;10.45;;;3.78;;
14080;SDS011;7116;52.152;5.392;2023-08-20T05:57:32;6.70;;;2.97;;
14080;SDS011;7116;52.152;5.392;2023-08-20T05:59:58;8.32;;;3.20;;
14080;SDS011;7116;52.152;5.392;2023-08-20T06:02:26;8.63;;;2.97;;
14080;SDS011;7116;52.152;5.392;2023-08-20T06:14:37;7.65;;;3.33;;
14080;SDS011;7116;52.152;5.392;2023-08-20T06:17:19;7.00;;;2.80;;
14080;SDS011;7116;52.152;5.392;2023-08-20T06:32:26;5.67;;;2.67;;
14080;SDS011;7116;52.152;5.392;2023-08-20T06:47:44;5.83;;;2.13;;
14080;SDS011;7116;52.152;5.392;2023-08-20T06:53:50;7.32;;;2.10;;
14080;SDS011;7116;52.152;5.392;2023-08-20T06:56:26;9.77;;;2.83;;
14080;SDS011;7116;52.152;5.392;2023-08-20T06:58:52;8.98;;;2.13;;
14080;SDS011;7116;52.152;5.392;2023-08-20T07:01:19;8.43;;;2.63;;
14080;SDS011;7116;52.152;5.392;2023-08-20T07:03:45;8.70;;;2.30;;
14080;SDS011;7116;52.152;5.392;2023-08-20T07:06:10;8.33;;;2.60;;
14080;SDS011;7116;52.152;5.392;2023-08-20T07:08:36;7.77;;;2.50;;
14080;SDS011;7116;52.152;5.392;2023-08-20T07:11:01;8.93;;;2.70;;
14080;SDS011;7116;52.152;5.392;2023-08-20T07:13:27;6.27;;;2.30;;
14080;SDS011;7116;52.152;5.392;2023-08-20T07:15:52;7.33;;;2.60;;
14080;SDS011;7116;52.152;5.392;2023-08-20T07:18:17;8.03;;;2.40;;
14080;SDS011;7116;52.152;5.392;2023-08-20T07:20:43;7.03;;;2.33;;
14080;SDS011;7116;52.152;5.392;2023-08-20T07:23:09;7.85;;;1.98;;
14080;SDS011;7116;52.152;5.392;2023-08-20T07:25:37;9.23;;;2.80;;
14080;SDS011;7116;52.152;5.392;2023-08-20T07:28:03;7.47;;;2.55;;
14080;SDS011;7116;52.152;5.392;2023-08-20T07:30:29;7.78;;;2.40;;
14080;SDS011;7116;52.152;5.392;2023-08-20T07:32:56;7.25;;;2.22;;
14080;SDS011;7116;52.152;5.392;2023-08-20T07:35:22;5.93;;;2.10;;
14080;SDS011;7116;52.152;5.392;2023-08-20T07:37:47;8.83;;;2.47;;
14080;SDS011;7116;52.152;5.392;2023-08-20T07:40:15;8.07;;;2.55;;
14080;SDS011;7116;52.152;5.392;2023-08-20T07:42:40;10.27;;;2.30;;
14080;SDS011;7116;52.152;5.392;2023-08-20T07:45:06;10.17;;;2.63;;
14080;SDS011;7116;52.152;5.392;2023-08-20T07:47:32;7.47;;;1.83;;
14080;SDS011;7116;52.152;5.392;2023-08-20T07:49:57;7.07;;;2.40;;
14080;SDS011;7116;52.152;5.392;2023-08-20T07:52:22;4.60;;;1.90;;
14080;SDS011;7116;52.152;5.392;2023-08-20T07:54:48;6.30;;;1.60;;
14080;SDS011;7116;52.152;5.392;2023-08-20T07:57:15;5.77;;;1.87;;
14080;SDS011;7116;52.152;5.392;2023-08-20T07:59:40;7.50;;;2.53;;
14080;SDS011;7116;52.152;5.392;2023-08-20T08:02:07;6.20;;;2.27;;
14080;SDS011;7116;52.152;5.392;2023-08-20T08:04:35;8.60;;;1.90;;
14080;SDS011;7116;52.152;5.392;2023-08-20T08:07:01;6.05;;;2.03;;
14080;SDS011;7116;52.152;5.392;2023-08-20T08:09:27;5.50;;;1.67;;
14080;SDS011;7116;52.152;5.392;2023-08-20T08:11:52;5.65;;;2.10;;
14080;SDS011;7116;52.152;5.392;2023-08-20T08:14:17;5.17;;;1.90;;
14080;SDS011;7116;52.152;5.392;2023-08-20T08:16:43;5.50;;;1.93;;
14080;SDS011;7116;52.152;5.392;2023-08-20T08:19:09;7.65;;;1.90;;
14080;SDS011;7116;52.152;5.392;2023-08-20T08:21:39;4.97;;;1.70;;
14080;SDS011;7116;52.152;5.392;2023-08-20T08:24:04;4.87;;;1.60;;
14080;SDS011;7116;52.152;5.392;2023-08-20T08:26:30;6.82;;;1.55;;
14080;SDS011;7116;52.152;5.392;2023-08-20T08:29:02;5.22;;;2.00;;
14080;SDS011;7116;52.152;5.392;2023-08-20T08:31:28;5.80;;;1.90;;
14080;SDS011;7116;52.152;5.392;2023-08-20T08:34:00;4.83;;;1.97;;
14080;SDS011;7116;52.152;5.392;2023-08-20T08:36:28;6.50;;;1.67;;
14080;SDS011;7116;52.152;5.392;2023-08-20T08:38:58;6.53;;;1.83;;
14080;SDS011;7116;52.152;5.392;2023-08-20T08:41:26;5.68;;;1.90;;
14080;SDS011;7116;52.152;5.392;2023-08-20T08:43:53;5.53;;;1.80;;
14080;SDS011;7116;52.152;5.392;2023-08-20T08:46:18;5.20;;;1.58;;
14080;SDS011;7116;52.152;5.392;2023-08-20T08:48:45;6.53;;;1.67;;
14080;SDS011;7116;52.152;5.392;2023-08-20T08:51:11;4.15;;;1.42;;
14080;SDS011;7116;52.152;5.392;2023-08-20T08:53:37;5.00;;;1.67;;
14080;SDS011;7116;52.152;5.392;2023-08-20T08:56:02;4.57;;;1.40;;
14080;SDS011;7116;52.152;5.392;2023-08-20T08:58:28;3.55;;;1.45;;
14080;SDS011;7116;52.152;5.392;2023-08-20T09:00:53;5.60;;;1.70;;
14080;SDS011;7116;52.152;5.392;2023-08-20T09:03:19;4.17;;;1.60;;
14080;SDS011;7116;52.152;5.392;2023-08-20T09:05:47;4.70;;;1.60;;
14080;SDS011;7116;52.152;5.392;2023-08-20T09:08:20;5.05;;;1.40;;
14080;SDS011;7116;52.152;5.392;2023-08-20T09:10:45;5.10;;;1.80;;
14080;SDS011;7116;52.152;5.392;2023-08-20T09:13:11;6.20;;;1.73;;
14080;SDS011;7116;52.152;5.392;2023-08-20T09:15:36;5.30;;;1.50;;
14080;SDS011;7116;52.152;5.392;2023-08-20T09:18:02;3.90;;;1.57;;
14080;SDS011;7116;52.152;5.392;2023-08-20T09:20:35;4.95;;;1.90;;
14080;SDS011;7116;52.152;5.392;2023-08-20T09:23:00;4.73;;;1.30;;
14080;SDS011;7116;52.152;5.392;2023-08-20T09:25:25;4.93;;;1.70;;
14080;SDS011;7116;52.152;5.392;2023-08-20T09:27:51;4.10;;;1.70;;
14080;SDS011;7116;52.152;5.392;2023-08-20T09:30:18;6.07;;;1.52;;
14080;SDS011;7116;52.152;5.392;2023-08-20T09:32:45;4.85;;;1.20;;
14080;SDS011;7116;52.152;5.392;2023-08-20T09:35:17;5.43;;;1.60;;
14080;SDS011;7116;52.152;5.392;2023-08-20T09:37:43;4.00;;;1.55;;
14080;SDS011;7116;52.152;5.392;2023-08-20T09:40:08;3.67;;;1.40;;
14080;SDS011;7116;52.152;5.392;2023-08-20T09:42:34;4.60;;;1.30;;
14080;SDS011;7116;52.152;5.392;2023-08-20T09:44:59;5.57;;;1.47;;
14080;SDS011;7116;52.152;5.392;2023-08-20T09:47:27;2.63;;;1.25;;
14080;SDS011;7116;52.152;5.392;2023-08-20T09:49:53;4.33;;;1.40;;
14080;SDS011;7116;52.152;5.392;2023-08-20T09:52:21;3.55;;;1.35;;
14080;SDS011;7116;52.152;5.392;2023-08-20T09:55:02;4.13;;;1.33;;
14080;SDS011;7116;52.152;5.392;2023-08-20T09:57:35;5.78;;;1.27;;
14080;SDS011;7116;52.152;5.392;2023-08-20T10:00:00;3.70;;;1.42;;
14080;SDS011;7116;52.152;5.392;2023-08-20T10:02:26;4.95;;;1.55;;
14080;SDS011;7116;52.152;5.392;2023-08-20T10:04:52;3.40;;;1.20;;
14080;SDS011;7116;52.152;5.392;2023-08-20T10:07:17;3.07;;;1.17;;
14080;SDS011;7116;52.152;5.392;2023-08-20T10:09:43;5.60;;;1.50;;
14080;SDS011;7116;52.152;5.392;2023-08-20T10:12:11;4.00;;;1.30;;
14080;SDS011;7116;52.152;5.392;2023-08-20T10:14:36;3.40;;;1.60;;
14080;SDS011;7116;52.152;5.392;2023-08-20T10:17:06;4.18;;;1.40;;
14080;SDS011;7116;52.152;5.392;2023-08-20T10:19:31;3.53;;;1.57;;
14080;SDS011;7116;52.152;5.392;2023-08-20T10:21:56;5.37;;;1.53;;
14080;SDS011;7116;52.152;5.392;2023-08-20T10:24:24;4.60;;;1.37;;
14080;SDS011;7116;52.152;5.392;2023-08-20T10:27:01;5.60;;;1.58;;
14080;SDS011;7116;52.152;5.392;2023-08-20T10:29:35;3.60;;;1.55;;
14080;SDS011;7116;52.152;5.392;2023-08-20T10:32:03;3.25;;;1.40;;
14080;SDS011;7116;52.152;5.392;2023-08-20T10:34:35;4.45;;;1.45;;
14080;SDS011;7116;52.152;5.392;2023-08-20T10:37:12;3.47;;;1.40;;
14080;SDS011;7116;52.152;5.392;2023-08-20T10:39:38;3.40;;;1.42;;
14080;SDS011;7116;52.152;5.392;2023-08-20T10:44:57;4.47;;;1.58;;
14080;SDS011;7116;52.152;5.392;2023-08-20T10:47:24;5.10;;;1.63;;
14080;SDS011;7116;52.152;5.392;2023-08-20T10:49:53;4.60;;;1.40;;
14080;SDS011;7116;52.152;5.392;2023-08-20T10:52:19;3.97;;;1.45;;
14080;SDS011;7116;52.152;5.392;2023-08-20T10:54:44;3.58;;;1.58;;
14080;SDS011;7116;52.152;5.392;2023-08-20T10:57:10;6.07;;;2.27;;
14080;SDS011;7116;52.152;5.392;2023-08-20T10:59:35;4.43;;;1.43;;
14080;SDS011;7116;52.152;5.392;2023-08-20T11:02:04;6.22;;;1.40;;
14080;SDS011;7116;52.152;5.392;2023-08-20T11:04:32;3.25;;;1.52;;
14080;SDS011;7116;52.152;5.392;2023-08-20T11:06:58;4.53;;;1.53;;
14080;SDS011;7116;52.152;5.392;2023-08-20T11:09:24;4.70;;;1.70;;
14080;SDS011;7116;52.152;5.392;2023-08-20T11:11:50;4.35;;;1.70;;
14080;SDS011;7116;52.152;5.392;2023-08-20T11:14:18;9.43;;;1.77;;
14080;SDS011;7116;52.152;5.392;2023-08-20T11:16:44;5.25;;;1.80;;
14080;SDS011;7116;52.152;5.392;2023-08-20T11:19:10;4.83;;;1.70;;
14080;SDS011;7116;52.152;5.392;2023-08-20T11:21:38;5.93;;;1.83;;
14080;SDS011;7116;52.152;5.392;2023-08-20T11:24:04;6.13;;;1.80;;
14080;SDS011;7116;52.152;5.392;2023-08-20T11:26:32;3.15;;;1.50;;
14080;SDS011;7116;52.152;5.392;2023-08-20T11:29:10;4.33;;;1.50;;
14080;SDS011;7116;52.152;5.392;2023-08-20T11:31:48;4.35;;;1.60;;
14080;SDS011;7116;52.152;5.392;2023-08-20T11:34:15;3.78;;;1.55;;
14080;SDS011;7116;52.152;5.392;2023-08-20T11:36:48;4.30;;;1.63;;
14080;SDS011;7116;52.152;5.392;2023-08-20T11:39:17;6.10;;;2.13;;
14080;SDS011;7116;52.152;5.392;2023-08-20T11:41:43;7.37;;;1.83;;
14080;SDS011;7116;52.152;5.392;2023-08-20T11:44:08;4.78;;;1.80;;
14080;SDS011;7116;52.152;5.392;2023-08-20T11:46:42;3.95;;;1.70;;
14080;SDS011;7116;52.152;5.392;2023-08-20T11:49:09;4.00;;;1.65;;
14080;SDS011;7116;52.152;5.392;2023-08-20T11:51:38;5.53;;;1.77;;
14080;SDS011;7116;52.152;5.392;2023-08-20T11:54:07;5.57;;;1.63;;
14080;SDS011;7116;52.152;5.392;2023-08-20T11:56:33;4.20;;;1.40;;
14080;SDS011;7116;52.152;5.392;2023-08-20T11:58:59;4.53;;;1.60;;
14080;SDS011;7116;52.152;5.392;2023-08-20T12:01:25;5.22;;;1.85;;
14080;SDS011;7116;52.152;5.392;2023-08-20T12:03:50;4.13;;;1.53;;
14080;SDS011;7116;52.152;5.392;2023-08-20T12:06:19;6.43;;;1.83;;
14080;SDS011;7116;52.152;5.392;2023-08-20T12:08:44;5.70;;;1.97;;
14080;SDS011;7116;52.152;5.392;2023-08-20T12:11:11;3.83;;;1.35;;
14080;SDS011;7116;52.152;5.392;2023-08-20T12:13:36;4.60;;;1.67;;
14080;SDS011;7116;52.152;5.392;2023-08-20T12:16:01;5.32;;;1.73;;
14080;SDS011;7116;52.152;5.392;2023-08-20T12:18:28;5.77;;;1.80;;
14080;SDS011;7116;52.152;5.392;2023-08-20T12:20:54;5.72;;;1.88;;
14080;SDS011;7116;52.152;5.392;2023-08-20T12:23:20;3.97;;;1.60;;
14080;SDS011;7116;52.152;5.392;2023-08-20T12:25:49;3.92;;;1.60;;
14080;SDS011;7116;52.152;5.392;2023-08-20T12:28:14;7.40;;;1.50;;
14080;SDS011;7116;52.152;5.392;2023-08-20T12:30:39;4.23;;;1.80;;
14080;SDS011;7116;52.152;5.392;2023-08-20T12:33:05;2.90;;;1.67;;
14080;SDS011;7116;52.152;5.392;2023-08-20T12:35:33;5.55;;;1.98;;
14080;SDS011;7116;52.152;5.392;2023-08-20T12:37:58;6.50;;;1.70;;
14080;SDS011;7116;52.152;5.392;2023-08-20T12:40:24;4.00;;;1.67;;
14080;SDS011;7116;52.152;5.392;2023-08-20T12:42:49;4.87;;;1.63;;
14080;SDS011;7116;52.152;5.392;2023-08-20T12:45:14;4.63;;;1.60;;
14080;SDS011;7116;52.152;5.392;2023-08-20T12:47:39;3.83;;;1.50;;
14080;SDS011;7116;52.152;5.392;2023-08-20T12:50:05;9.13;;;1.87;;
14080;SDS011;7116;52.152;5.392;2023-08-20T12:52:31;5.60;;;1.80;;
14080;SDS011;7116;52.152;5.392;2023-08-20T12:54:57;5.50;;;1.90;;
14080;SDS011;7116;52.152;5.392;2023-08-20T12:57:23;4.30;;;2.20;;
14080;SDS011;7116;52.152;5.392;2023-08-20T12:59:49;4.75;;;1.33;;
14080;SDS011;7116;52.152;5.392;2023-08-20T13:02:14;7.20;;;2.33;;
14080;SDS011;7116;52.152;5.392;2023-08-20T13:04:40;5.57;;;1.55;;
14080;SDS011;7116;52.152;5.392;2023-08-20T13:07:06;5.13;;;2.03;;
14080;SDS011;7116;52.152;5.392;2023-08-20T13:09:31;6.00;;;2.10;;
14080;SDS011;7116;52.152;5.392;2023-08-20T13:11:57;5.37;;;1.80;;
14080;SDS011;7116;52.152;5.392;2023-08-20T13:14:22;4.10;;;1.70;;
14080;SDS011;7116;52.152;5.392;2023-08-20T13:16:48;3.97;;;1.73;;
14080;SDS011;7116;52.152;5.392;2023-08-20T13:19:13;3.78;;;1.48;;
14080;SDS011;7116;52.152;5.392;2023-08-20T13:21:39;3.83;;;1.60;;
14080;SDS011;7116;52.152;5.392;2023-08-20T13:24:04;5.00;;;1.87;;
14080;SDS011;7116;52.152;5.392;2023-08-20T13:26:30;4.47;;;1.65;;
14080;SDS011;7116;52.152;5.392;2023-08-20T13:28:55;5.60;;;2.00;;
14080;SDS011;7116;52.152;5.392;2023-08-20T13:31:20;4.93;;;1.87;;
14080;SDS011;7116;52.152;5.392;2023-08-20T13:33:46;6.00;;;1.90;;
14080;SDS011;7116;52.152;5.392;2023-08-20T13:36:11;4.80;;;2.00;;
14080;SDS011;7116;52.152;5.392;2023-08-20T13:38:36;5.13;;;1.50;;
14080;SDS011;7116;52.152;5.392;2023-08-20T13:41:01;5.17;;;1.80;;
14080;SDS011;7116;52.152;5.392;2023-08-20T13:43:27;4.70;;;1.70;;
14080;SDS011;7116;52.152;5.392;2023-08-20T13:45:52;3.80;;;1.60;;
14080;SDS011;7116;52.152;5.392;2023-08-20T13:48:17;4.97;;;1.93;;
14080;SDS011;7116;52.152;5.392;2023-08-20T13:50:42;4.57;;;2.23;;
14080;SDS011;7116;52.152;5.392;2023-08-20T13:53:07;5.03;;;1.60;;
14080;SDS011;7116;52.152;5.392;2023-08-20T13:55:33;6.77;;;2.10;;
14080;SDS011;7116;52.152;5.392;2023-08-20T13:58:00;5.13;;;1.60;;
14080;SDS011;7116;52.152;5.392;2023-08-20T14:00:28;4.97;;;1.67;;
14080;SDS011;7116;52.152;5.392;2023-08-20T14:02:53;4.88;;;1.58;;
14080;SDS011;7116;52.152;5.392;2023-08-20T14:05:18;4.33;;;1.70;;
14080;SDS011;7116;52.152;5.392;2023-08-20T14:07:46;4.40;;;2.00;;
14080;SDS011;7116;52.152;5.392;2023-08-20T14:10:11;4.73;;;1.73;;
14080;SDS011;7116;52.152;5.392;2023-08-20T14:12:36;6.67;;;1.80;;
14080;SDS011;7116;52.152;5.392;2023-08-20T14:15:03;4.80;;;1.33;;
14080;SDS011;7116;52.152;5.392;2023-08-20T14:17:28;2.92;;;1.50;;
14080;SDS011;7116;52.152;5.392;2023-08-20T14:19:55;4.30;;;1.63;;
14080;SDS011;7116;52.152;5.392;2023-08-20T14:22:20;5.40;;;1.73;;
14080;SDS011;7116;52.152;5.392;2023-08-20T14:24:47;6.60;;;1.77;;
14080;SDS011;7116;52.152;5.392;2023-08-20T14:27:14;6.03;;;1.63;;
14080;SDS011;7116;52.152;5.392;2023-08-20T14:29:47;6.38;;;1.77;;
14080;SDS011;7116;52.152;5.392;2023-08-20T14:32:14;5.20;;;1.83;;
14080;SDS011;7116;52.152;5.392;2023-08-20T14:34:49;4.65;;;1.65;;
14080;SDS011;7116;52.152;5.392;2023-08-20T14:37:14;5.50;;;1.70;;
14080;SDS011;7116;52.152;5.392;2023-08-20T14:39:43;6.00;;;1.88;;
14080;SDS011;7116;52.152;5.392;2023-08-20T14:42:11;5.40;;;1.80;;
14080;SDS011;7116;52.152;5.392;2023-08-20T14:44:36;5.97;;;1.73;;
14080;SDS011;7116;52.152;5.392;2023-08-20T14:47:13;4.70;;;1.60;;
14080;SDS011;7116;52.152;5.392;2023-08-20T14:49:48;7.93;;;1.80;;
14080;SDS011;7116;52.152;5.392;2023-08-20T14:52:13;3.50;;;1.63;;
14080;SDS011;7116;52.152;5.392;2023-08-20T14:54:38;5.77;;;1.80;;
14080;SDS011;7116;52.152;5.392;2023-08-20T14:57:06;4.53;;;1.58;;
14080;SDS011;7116;52.152;5.392;2023-08-20T14:59:31;3.97;;;1.70;;
14080;SDS011;7116;52.152;5.392;2023-08-20T15:01:59;6.05;;;1.80;;
14080;SDS011;7116;52.152;5.392;2023-08-20T15:04:25;7.03;;;1.87;;
14080;SDS011;7116;52.152;5.392;2023-08-20T15:06:50;5.27;;;2.20;;
14080;SDS011;7116;52.152;5.392;2023-08-20T15:09:23;5.67;;;1.87;;
14080;SDS011;7116;52.152;5.392;2023-08-20T15:11:48;4.40;;;1.53;;
14080;SDS011;7116;52.152;5.392;2023-08-20T15:14:13;4.43;;;1.50;;
14080;SDS011;7116;52.152;5.392;2023-08-20T15:16:39;4.87;;;1.60;;
14080;SDS011;7116;52.152;5.392;2023-08-20T15:19:04;5.78;;;2.10;;
14080;SDS011;7116;52.152;5.392;2023-08-20T15:21:29;4.00;;;2.10;;
14080;SDS011;7116;52.152;5.392;2023-08-20T15:23:54;4.77;;;1.60;;
14080;SDS011;7116;52.152;5.392;2023-08-20T15:26:19;7.20;;;2.00;;
14080;SDS011;7116;52.152;5.392;2023-08-20T15:28:45;7.17;;;1.80;;
14080;SDS011;7116;52.152;5.392;2023-08-20T15:31:10;6.37;;;1.90;;
14080;SDS011;7116;52.152;5.392;2023-08-20T15:33:35;4.97;;;2.20;;
14080;SDS011;7116;52.152;5.392;2023-08-20T15:36:00;4.87;;;1.60;;
14080;SDS011;7116;52.152;5.392;2023-08-20T15:38:26;3.40;;;1.80;;
14080;SDS011;7116;52.152;5.392;2023-08-20T15:40:53;5.27;;;2.03;;
14080;SDS011;7116;52.152;5.392;2023-08-20T15:43:19;5.20;;;1.98;;
14080;SDS011;7116;52.152;5.392;2023-08-20T15:45:44;6.10;;;2.27;;
14080;SDS011;7116;52.152;5.392;2023-08-20T15:48:09;6.33;;;2.10;;
14080;SDS011;7116;52.152;5.392;2023-08-20T15:50:36;4.25;;;2.25;;
14080;SDS011;7116;52.152;5.392;2023-08-20T15:53:01;9.13;;;2.23;;
14080;SDS011;7116;52.152;5.392;2023-08-20T15:55:27;5.87;;;2.10;;
14080;SDS011;7116;52.152;5.392;2023-08-20T15:57:52;4.35;;;1.67;;
14080;SDS011;7116;52.152;5.392;2023-08-20T16:00:20;6.30;;;2.00;;
14080;SDS011;7116;52.152;5.392;2023-08-20T16:02:53;4.37;;;1.80;;
14080;SDS011;7116;52.152;5.392;2023-08-20T16:05:38;4.60;;;2.22;;
14080;SDS011;7116;52.152;5.392;2023-08-20T16:08:47;6.22;;;2.03;;
14080;SDS011;7116;52.152;5.392;2023-08-20T16:14:26;5.47;;;2.17;;
14080;SDS011;7116;52.152;5.392;2023-08-20T16:19:49;5.25;;;2.22;;
14080;SDS011;7116;52.152;5.392;2023-08-20T16:22:37;5.77;;;2.40;;
14080;SDS011;7116;52.152;5.392;2023-08-20T16:25:28;5.03;;;2.78;;
14080;SDS011;7116;52.152;5.392;2023-08-20T16:28:06;10.20;;;2.17;;
14080;SDS011;7116;52.152;5.392;2023-08-20T16:46:21;5.88;;;2.38;;
14080;SDS011;7116;52.152;5.392;2023-08-20T16:49:24;4.38;;;2.30;;
14080;SDS011;7116;52.152;5.392;2023-08-20T16:58:13;10.63;;;7.00;;
14080;SDS011;7116;52.152;5.392;2023-08-20T17:06:46;5.93;;;2.87;;
14080;SDS011;7116;52.152;5.392;2023-08-20T17:09:22;5.20;;;2.08;;
14080;SDS011;7116;52.152;5.392;2023-08-20T17:18:19;6.70;;;2.15;;
14080;SDS011;7116;52.152;5.392;2023-08-20T17:21:12;5.17;;;2.30;;
14080;SDS011;7116;52.152;5.392;2023-08-20T17:23:50;5.57;;;2.10;;
14080;SDS011;7116;52.152;5.392;2023-08-20T17:26:42;5.72;;;2.25;;
14080;SDS011;7116;52.152;5.392;2023-08-20T17:29:48;5.60;;;2.35;;
14080;SDS011;7116;52.152;5.392;2023-08-20T17:32:32;5.45;;;3.08;;
14080;SDS011;7116;52.152;5.392;2023-08-20T17:35:17;6.67;;;2.57;;
14080;SDS011;7116;52.152;5.392;2023-08-20T17:38:13;7.50;;;2.80;;
14080;SDS011;7116;52.152;5.392;2023-08-20T17:41:01;8.82;;;2.50;;
14080;SDS011;7116;52.152;5.392;2023-08-20T17:43:58;8.30;;;2.65;;
14080;SDS011;7116;52.152;5.392;2023-08-20T17:49:30;7.83;;;2.37;;
14080;SDS011;7116;52.152;5.392;2023-08-20T17:55:10;5.57;;;2.22;;
14080;SDS011;7116;52.152;5.392;2023-08-20T18:16:09;5.70;;;2.65;;
14080;SDS011;7116;52.152;5.392;2023-08-20T18:18:52;7.05;;;2.42;;
14080;SDS011;7116;52.152;5.392;2023-08-20T18:21:28;6.43;;;2.40;;
14080;SDS011;7116;52.152;5.392;2023-08-20T18:33:30;6.80;;;2.47;;
14080;SDS011;7116;52.152;5.392;2023-08-20T18:36:17;5.83;;;2.30;;
14080;SDS011;7116;52.152;5.392;2023-08-20T18:39:03;5.63;;;2.20;;
14080;SDS011;7116;52.152;5.392;2023-08-20T18:44:34;6.32;;;2.60;;
14080;SDS011;7116;52.152;5.392;2023-08-20T18:47:01;6.25;;;2.63;;
14080;SDS011;7116;52.152;5.392;2023-08-20T18:49:26;13.20;;;2.73;;
14080;SDS011;7116;52.152;5.392;2023-08-20T18:52:01;5.60;;;2.27;;
14080;SDS011;7116;52.152;5.392;2023-08-20T18:54:27;11.45;;;2.60;;
14080;SDS011;7116;52.152;5.392;2023-08-20T18:56:52;9.83;;;3.20;;
14080;SDS011;7116;52.152;5.392;2023-08-20T18:59:17;9.57;;;3.27;;
14080;SDS011;7116;52.152;5.392;2023-08-20T19:01:45;6.97;;;2.70;;
14080;SDS011;7116;52.152;5.392;2023-08-20T19:04:10;8.27;;;2.57;;
14080;SDS011;7116;52.152;5.392;2023-08-20T19:06:40;8.80;;;2.50;;
14080;SDS011;7116;52.152;5.392;2023-08-20T19:09:05;7.97;;;2.87;;
14080;SDS011;7116;52.152;5.392;2023-08-20T19:11:31;5.53;;;1.90;;
14080;SDS011;7116;52.152;5.392;2023-08-20T19:13:56;11.17;;;2.47;;
14080;SDS011;7116;52.152;5.392;2023-08-20T19:16:21;7.60;;;2.73;;
14080;SDS011;7116;52.152;5.392;2023-08-20T19:18:47;9.53;;;3.10;;
14080;SDS011;7116;52.152;5.392;2023-08-20T19:21:12;8.10;;;2.37;;
14080;SDS011;7116;52.152;5.392;2023-08-20T19:23:37;11.17;;;2.70;;
14080;SDS011;7116;52.152;5.392;2023-08-20T19:26:02;8.40;;;2.63;;
14080;SDS011;7116;52.152;5.392;2023-08-20T19:28:27;7.10;;;2.50;;
14080;SDS011;7116;52.152;5.392;2023-08-20T19:30:53;7.37;;;2.90;;
14080;SDS011;7116;52.152;5.392;2023-08-20T19:33:19;6.32;;;2.20;;
14080;SDS011;7116;52.152;5.392;2023-08-20T19:35:44;5.57;;;2.73;;
14080;SDS011;7116;52.152;5.392;2023-08-20T19:38:10;11.40;;;3.37;;
14080;SDS011;7116;52.152;5.392;2023-08-20T19:40:36;11.13;;;3.75;;
14080;SDS011;7116;52.152;5.392;2023-08-20T19:43:01;8.63;;;2.87;;
14080;SDS011;7116;52.152;5.392;2023-08-20T19:45:27;9.90;;;2.95;;
14080;SDS011;7116;52.152;5.392;2023-08-20T19:47:52;6.20;;;2.30;;
14080;SDS011;7116;52.152;5.392;2023-08-20T19:50:18;6.27;;;2.43;;
14080;SDS011;7116;52.152;5.392;2023-08-20T19:52:43;20.20;;;3.50;;
14080;SDS011;7116;52.152;5.392;2023-08-20T19:55:08;6.90;;;2.40;;
14080;SDS011;7116;52.152;5.392;2023-08-20T19:57:33;7.17;;;2.50;;
14080;SDS011;7116;52.152;5.392;2023-08-20T20:00:01;7.47;;;2.50;;
14080;SDS011;7116;52.152;5.392;2023-08-20T20:02:26;9.90;;;2.53;;
14080;SDS011;7116;52.152;5.392;2023-08-20T20:04:52;6.97;;;2.53;;
14080;SDS011;7116;52.152;5.392;2023-08-20T20:07:17;7.43;;;2.63;;
14080;SDS011;7116;52.152;5.392;2023-08-20T20:09:42;6.37;;;2.73;;
14080;SDS011;7116;52.152;5.392;2023-08-20T20:12:08;6.38;;;2.42;;
14080;SDS011;7116;52.152;5.392;2023-08-20T20:14:33;8.27;;;2.30;;
14080;SDS011;7116;52.152;5.392;2023-08-20T20:16:58;8.03;;;2.63;;
14080;SDS011;7116;52.152;5.392;2023-08-20T20:19:24;8.57;;;2.60;;
14080;SDS011;7116;52.152;5.392;2023-08-20T20:21:49;5.23;;;2.30;;
14080;SDS011;7116;52.152;5.392;2023-08-20T20:24:14;6.80;;;2.10;;
14080;SDS011;7116;52.152;5.392;2023-08-20T20:26:39;7.53;;;2.67;;
14080;SDS011;7116;52.152;5.392;2023-08-20T20:29:04;5.23;;;2.00;;